空港情報

日本の空港の気象及び、管制情報です。
気象情報はより詳細な情報が取得できる「AVIATION WEATER CENTER」 から取得しているため、VATSIMの気象情報と若干のタイムラグが生じることがあります。

VRCのフィールド設定用空港一覧はこちらをご覧ください。

RJCG Sapporo Control

RJCW / Wakkanai

NO RADAR

RADIO

08/26 2200x45

民間 civil

過去5時間に発表されたMETARがありません。

RJER / Rishiri

NO RADAR

REMOTE

25/07 1800x45

民間 civil

過去5時間に発表されたMETARがありません。

RJEB / Monbetsu

NO RADAR

REMOTE

32/14 2000x45

民間 civil

過去5時間に発表されたMETARがありません。

RJCM / Memanbetsu

NO RADAR

TOWER

36/18 2500x45

民間 civil

過去5時間に発表されたMETARがありません。

RJEC / Asahikawa
VMC

NO RADAR

TOWER

34/16 2500x60

民間 civil

9999

170@5KT

30.18

RJEC 172200Z 17005KT 9999 FEW003 SCT040 00/00 Q1022

RJCN / Nakashibetsu

NO RADAR

RADIO

08/26 2000x45

民間 civil

過去5時間に発表されたMETARがありません。

RJCK / Kushiro
VMC

NO RADAR

TOWER

17/35 2500x45

民間 civil

9999

310@10KT

30.15

RJCK 172200Z 31010KT 9999 FEW040 05/M02 Q1021

RJCO / Sapporo

RJCO_APP

TOWER

14/32 1500x30

共用 dual

過去5時間に発表されたMETARがありません。

RJCJ / Chitose

RJCC_APP

TOWER

36R/18L 3000x60
36L/18R 2700x45

自衛隊 military

過去5時間に発表されたMETARがありません。

RJCC / NewChitose
VMC

RJCC_APP

TOWER

01L/19R 3000x60
01R/19L 3000x60

民間 civil

9999

050@3KT

30.24

RJCC 172200Z 05003KT 360V100 9999 -SHRA FEW010 BKN025 03/03 Q1024 RMK 1ST010 6CU025 A3026

RJCB / Obihiro

NO RADAR

TOWER

35/17 2500x45

民間 civil

過去5時間に発表されたMETARがありません。

RJEO / Okushiri

NO RADAR

REMOTE

12/30 1500x45

民間 civil

過去5時間に発表されたMETARがありません。

RJCH / Hakodate
VMC

RJCH_APP

TOWER

12/30 3000x45

民間 civil

9999

320@5KT

30.27

RJCH 172200Z 32005KT 9999 FEW030 SCT080 05/M01 Q1025

RJSA / Aomori
VMC

NO RADAR

TOWER

24/06 3000x60

民間 civil

9999

000@2KT

30.27

RJSA 172200Z VRB02KT 9999 FEW040 BKN070 05/03 Q1025

RJSO / Ominato

RJSM_APP

TOWER

04/22 600x45

自衛隊 military

過去5時間に発表されたMETARがありません。

RJSM / Misawa

RJSM_APP

TOWER

10/28 3050x45

共用 dual

過去5時間に発表されたMETARがありません。

RJSH / Hachinohe

RJSM_APP

TOWER

25/07 2250x45

自衛隊 military

過去5時間に発表されたMETARがありません。

RJSK / Akita
VMC

NO RADAR

TOWER

10/28 2500x60

民間 civil

9999

000@2KT

30.27

RJSK 172200Z VRB02KT 9999 FEW020 BKN050 08/03 Q1025

RJSI / Hanamaki

NO RADAR

RADIO

20/02 2500x45

民間 civil

過去5時間に発表されたMETARがありません。

RJSR / Odate-Noshiro

NO RADAR

REMOTE

11/29 2000x45

民間 civil

過去5時間に発表されたMETARがありません。

RJTG Tokyo Control

RJSY / Shonai
VMC

NO RADAR

RADIO

09/27 2000x45

民間 civil

9999

340@6KT

30.30

RJSY 172200Z 34006KT 310V030 9999 FEW035 BKN050 13/01 Q1026

RJSC / Yamagata

NO RADAR

RADIO

01/19 2000x45

民間 civil

過去5時間に発表されたMETARがありません。

RJST / Matsushima

RJSS_APP

TOWER

07/25 2071x46
15/33 1500x46

自衛隊 military

過去5時間に発表されたMETARがありません。

RJSS / Sendai
VMC

RJSS_APP

TOWER

27/09 3000x45
12/30 1200x45

民間 civil

9999

350@9KT

30.27

RJSS 172200Z 35009KT 9999 FEW030 BKN/// 12/02 Q1025

RJSD / Sado

NO RADAR

REMOTE

10/28 890x25

民間 civil

過去5時間に発表されたMETARがありません。

RJSN / Niigata
VMC

RJSN_APP

TOWER

10/28 2500x45
04/22 1314x45

民間 civil

9999

360@13KT

30.30

RJSN 172200Z 36013KT 9999 FEW020 SCT045 14/05 Q1026

RJSF / Fukushima
VMC

NO RADAR

RADIO

01/19 2500x60

民間 civil

9999

040@5KT

30.24

RJSF 172200Z 04005KT 9999 SCT035 BKN045 BKN/// 10/08 Q1024

RJAH / Ibaraki/Hyakuri
VMC

RJAH_APP

TOWER

03L/21R 2700x45
03R/21L 2700x45

共用 dual

9999

010@7KT

30.21

RJAH 172200Z 01007KT 9999 FEW015 09/09 Q1023

RJTT / Tokyo
VMC

RJTT_APP

TOWER

34LR/16RL 3000x60
04/22&05/23 2500x60

民間 civil

9999

020@10KT

30.21

RJTT 172200Z 02010KT 9999 FEW020 SCT070 15/12 Q1023 NOSIG RMK 1CU020 3AC070 A3022

RJAA / Narita
VMC

RJTT_APP

TOWER

34L/16R 4000x60
34R/16L 2500x60

民間 civil

7000

330@2KT

30.21

RJAA 172200Z 33002KT 7000 BR FEW015 12/12 Q1023 NOSIG RMK 1CU015 A3023 BR NE-E

RJTL / Shimofusa
IMC

RJTT_APP

TOWER

19/01 2250x45

自衛隊 military

0700

000@2KT

30.24

RJTL 172217Z VRB02KT 0700 R19/0150V0350N FG BKN004 10/10 Q1024 RMK 6ST004 A3024 R0200

RJTE / Tateyama

RJTT_APP

TOWER

09/27 300x45

自衛隊 military

過去5時間に発表されたMETARがありません。

RJTO / Oshima

NO RADAR

RADIO

03/21 1800x45

民間 civil

過去5時間に発表されたMETARがありません。

RJTK / Kisarazu

NO RADAR

TOWER

02/20 1830x45

自衛隊 military

過去5時間に発表されたMETARがありません。

RJAN / Niijima

NO RADAR

REMOTE

11/29 800x25

自衛隊 military

過去5時間に発表されたMETARがありません。

RJAZ / Kozushima

NO RADAR

REMOTE

11/29 800x25

民間 civil

過去5時間に発表されたMETARがありません。

RJTH / Hachijojima

NO RADAR

RADIO

26/08 2000x45

民間 civil

過去5時間に発表されたMETARがありません。

RJTF / Chofu

NO RADAR

Flight Service

35/17 800x30

民間 civil

過去5時間に発表されたMETARがありません。

RJTQ / Miyake

NO RADAR

REMOTE

02/20 1200x30

民間 civil

過去5時間に発表されたMETARがありません。

RJTC / Tachikawa
VMC

NO RADAR

TOWER

01/19 900x45

自衛隊 military

5000

050@3KT

30.21

RJTC 172126Z 05003KT 320V080 5000 BR SCT005 10/09 Q1023 RMK 3ST005 A3022

RJTA / Atsugi

NO RADAR

TOWER

01/19 2438x45

自衛隊 military

過去5時間に発表されたMETARがありません。

RJTU / Utsunomiya

RJTY_APP

TOWER

01/19 1700x45

自衛隊 military

過去5時間に発表されたMETARがありません。

RJTJ / Iruma

RJTY_APP

TOWER

17/35 2000x45

自衛隊 military

過去5時間に発表されたMETARがありません。

RJTY / Yokota
IMC

RJTY_APP

TOWER

18/36 3353x60

自衛隊 military

0600

000@0KT

30.28

RJTY 172216Z 00000KT 3/8SM R18/2000V3000FT FG SCT000 09/09 A3028 RMK AO2A SLP259 FZRANO $

RJAF / Matsumoto

NO RADAR

RADIO

18/36 2000x45

民間 civil

過去5時間に発表されたMETARがありません。

RJNS / Shizuoka

NO RADAR

RADIO

30/12 2500x60

民間 civil

過去5時間に発表されたMETARがありません。

RJNY / Yaizu-Shizuhama
VMC

NO RADAR

TOWER

27/09 1500x45

自衛隊 military

9999

310@2KT

30.12

RJNY 172045Z 31002KT 9999 FEW006 SCT050 BKN230 14/12 Q1020 RMK 1ST006 4SC050 A3014

RJNH / Hamamatsu

RJNH_APP

TOWER

09/27 2550x60

自衛隊 military

過去5時間に発表されたMETARがありません。

RJGG / Chubu
VMC

RJGG_APP

TOWER

36/18 3500x60

民間 civil

9999

360@16KT

30.18

RJGG 172200Z 36016KT 9999 FEW020 BKN/// 15/09 Q1022 NOSIG

RJNA / Nagoya

RJGG_APP

TOWER

34/16 2740x45

民間 civil

過去5時間に発表されたMETARがありません。

RJNG / Gifu

RJGG_APP

TOWER

28/10 2710x46

自衛隊 military

過去5時間に発表されたMETARがありません。

RJOE / Akeno

RJOE_APP

TOWER

13/31 500x30
04/22 500x30

自衛隊 military

過去5時間に発表されたMETARがありません。

RJNK / Komatsu
VMC

RJNK_APP

TOWER

06/24 2700x45

共用 dual

9999

030@12KT

30.24

RJNK 172200Z 03012KT 9999 FEW025 14/06 Q1024

RJNW / Noto

NO RADAR

RADIO

25/07 2000x45

民間 civil

過去5時間に発表されたMETARがありません。

RJNT / Toyama
VMC

NO RADAR

TOWER

20/02 2000x45

民間 civil

9999

000@1KT

30.24

RJNT 172200Z VRB01KT 9999 FEW030 SCT040 14/09 Q1024

RJNF / Fukui

NO RADAR

REMOTE

18/36 1200x30

民間 civil

過去5時間に発表されたMETARがありません。

RJBD / Nanki-Shirahama

NO RADAR

RADIO

15/33 2000x45

民間 civil

過去5時間に発表されたMETARがありません。

RJOY / Yao

RJBB_APP

TOWER

27/09 1490x45
13/31 1200x30

民間 civil

過去5時間に発表されたMETARがありません。

RJOO / Osaka
VMC

RJBB_APP

TOWER

32L/14R 3000x60
32R/14L 1830x45

民間 civil

9999

090@5KT

30.18

RJOO 172200Z 09005KT 9999 FEW030 BKN/// 13/12 Q1022 RMK 1CU030 A3019

RJOB / Okayama
VMC

RJBB_APP

TOWER

07/25 3000x45

民間 civil

9999

050@5KT

30.18

RJOB 172200Z 05005KT 9999 PRFG FEW000 SCT030 BKN/// 13/11 Q1022

RJBB / Kansai
VMC

RJBB_APP

TOWER

06R/24L 3500x60
06L/24R 4000x60

民間 civil

9999

060@14KT

30.18

RJBB 172200Z 06014KT 9999 FEW025 BKN/// 16/13 Q1022 NOSIG

RJBE / Kobe
VMC

RJBB_APP

TOWER

09/27 2500x60

民間 civil

9999

070@13KT

30.15

RJBE 172200Z 07013KT 9999 FEW020 SCT180 BKN/// 16/12 Q1021

RJBT / Tajima

NO RADAR

REMOTE

01/19 1200x30

民間 civil

過去5時間に発表されたMETARがありません。

RJOR / Tottori
VMC

NO RADAR

RADIO

10/28 2000x45

民間 civil

9999

060@21KT

30.21

RJOR 172200Z 06021KT 9999 FEW030 SCT050 BKN/// 17/09 Q1023

RJNO / Oki

NO RADAR

REMOTE

07/25 2000x45

民間 civil

過去5時間に発表されたMETARがありません。

RJOH / Miho
VMC

RJOH_APP

TOWER

25/07 2500x45

共用 dual

9999

050@21KT

30.21

RJOH 172200Z 05021KT 9999 FEW020 BKN030 BKN050 17/08 Q1023

RJOC / Izumo
VMC

RJOH_APP

RADIO

07/25 2000x45

共用 dual

9999

060@21KT

30.21

RJOC 172200Z 06021KT 9999 FEW025 SCT035 BKN050 17/10 Q1023

RJDG Fukuoka Control

RJOT / Takamatsu
VMC

RJBB_APP

TOWER

26/08 2500x60

民間 civil

9999

000@3KT

30.18

RJOT 172200Z VRB03KT 9999 FEW020 SCT035 BKN/// 14/13 Q1022

RJOK / Kochi
VMC

RJBB_APP

TOWER

32/14 2500x45

民間 civil

9999

360@9KT

30.09

RJOK 172200Z 36009KT 9999 FEW030 SCT060 BKN/// 16/10 Q1019

RJOS / Tokushima

RJOS_APP

TOWER

29/11 2500x45

共用 dual

過去5時間に発表されたMETARがありません。

RJOA / Hiroshima
VMC

RJOA_APP

TOWER

10/28 3000x60

民間 civil

9999

070@7KT

30.18

RJOA 172200Z 07007KT 9999 FEW010 BKN030 BKN/// 14/11 Q1022

RJBH / Hiroshimanishi

NO RADAR

Flight Service

04/22 1800x45

民間 civil

過去5時間に発表されたMETARがありません。

RJOI / Iwakuni
VMC

RJOI_APP

TOWER

02/20 2440x60

共用 dual

9999

020@15KT

30.16

RJOI 172155Z 02015KT 9999 FEW025 SCT100 BKN230 17/12 A3016 RMK SLP213 T01720117

RJOM / Matsuyama
VMC

RJOI_APP

TOWER

14/32 2500x45

民間 civil

9999

120@7KT

30.09

RJOM 172200Z 12007KT 9999 FEW020 SCT060 BKN/// 16/11 Q1019

RJOZ / Ozuki

RJFZ_APP

TOWER

35/17 1201x61
12/30 899x46

自衛隊 military

過去5時間に発表されたMETARがありません。

RJOF / Hofu
VMC

RJFZ_APP

TOWER

30/12 1180x60
01/19 1480x45

自衛隊 military

9999

000@2KT

30.12

RJOF 172142Z VRB02KT 9999 FEW025 BKN150 BKN230 14/09 Q1020 RMK 1CU025 5AC150 A3013

RJDC / Yamaguchi-Ube
VMC

RJFZ_APP

RADIO

07/25 2500x45

民間 civil

9999

340@6KT

30.12

RJDC 172200Z 34006KT 9999 FEW030 BKN160 BKN/// 14/12 Q1020

RJFR / Kitakyushu
VMC

RJFZ_APP

TOWER

18/36 2500x60

民間 civil

9999

060@9KT

30.12

RJFR 172200Z 06009KT 9999 FEW030 SCT080 BKN170 18/09 Q1020

RJFZ / Tsuiki

RJFZ_APP

TOWER

25/07 2399x46

自衛隊 military

過去5時間に発表されたMETARがありません。

RJOW / Iwami

NO RADAR

REMOTE

11/29 2000x45

民間 civil

過去5時間に発表されたMETARがありません。

RJDT / Tsushima

NO RADAR

REMOTE

32/14 1900x45

民間 civil

過去5時間に発表されたMETARがありません。

RJFF / Fukuoka
VMC

RJFF_APP

TOWER

16/34 2800x60

民間 civil

9999

050@7KT

30.09

RJFF 172200Z 05007KT 9999 FEW020 SCT070 BKN160 18/11 Q1019 RMK 1CU020 4AC070 7AC160 A3010

RJFS / Saga
VMC

RJFF_APP

RADIO

29/11 2000x45

民間 civil

9999

040@12KT

30.06

RJFS 172200Z 04012KT 9999 FEW020 SCT040 BKN050 17/13 Q1018

RJFA / Ashiya

RJFF_APP

TOWER

12/30 1640x46

自衛隊 military

過去5時間に発表されたMETARがありません。

RJDB / Iki

RJFF_APP

REMOTE

20/02 1200x30

民間 civil

過去5時間に発表されたMETARがありません。

RJFO / Oita
VMC

RJFO_APP

TOWER

01/19 3000x45

民間 civil

9999

040@16KT

30.12

RJFO 172200Z 04016KT 9999 FEW015 BKN050 BKN060 19/14 Q1020

RJFU / Nagasaki
VMC

RJFU_APP

TOWER

32/14 3000x60

民間 civil

9999

300@4KT

30.03

RJFU 172200Z 30004KT 210V360 9999 VCSH FEW015 BKN045 18/15 Q1017

RJDU / Omura

RJFU_APP

TOWER

18/36 1200x30

自衛隊 military

過去5時間に発表されたMETARがありません。

RJFE / Fukue

NO RADAR

RADIO

03/21 2000x45

民間 civil

過去5時間に発表されたMETARがありません。

RJDO / Ojika

NO RADAR

REMOTE

03/21 800x30

民間 civil

過去5時間に発表されたMETARがありません。

RJDK / Kamigoto

NO RADAR

REMOTE

17/35 800x30

民間 civil

過去5時間に発表されたMETARがありません。

RJDA / Amakusa

NO RADAR

Flight Service

31/13 1000x30

民間 civil

過去5時間に発表されたMETARがありません。

RJFT / Kumamoto
VMC

RJFT_APP

TOWER

07/25 3000x45

民間 civil

9999

050@13KT

30.06

RJFT 172200Z 05013KT 9999 -RA FEW015 BKN040 17/14 Q1018

RJFN / Nyutabaru

RJFM_APP

TOWER

28/10 2701x46

自衛隊 military

過去5時間に発表されたMETARがありません。

RJFM / Miyazaki
VMC

RJFM_APP

TOWER

27/09 2500x45

民間 civil

9999

030@10KT

30.06

RJFM 172200Z 03010KT 9999 FEW015 SCT020 BKN025 18/17 Q1018

RJFK / Kagoshima
VMC

RJFK_APP

TOWER

34/16 3000x45

民間 civil

9999

100@10KT

30.03

RJFK 172200Z 10010KT 050V130 9999 FEW005 SCT015 BKN050 19/15 Q1017 RMK 1ST005 3CU015 5SC050 A3004

RJFY / Kanoya

RJFY_APP

TOWER

26L/08R 2250x45
26R/08L 1200x40

自衛隊 military

過去5時間に発表されたMETARがありません。

RJFG / Tanegashima

NO RADAR

RADIO

31/13 2000x45

民間 civil

過去5時間に発表されたMETARがありません。

RJFC / Yakushima

NO RADAR

REMOTE

14/32 1500x45

民間 civil

過去5時間に発表されたMETARがありません。

RORG Naha Control

ROAH / Naha
VMC

ROAH_APP

TOWER

36/18 3000x45

共用 dual

9999

060@6KT

29.85

ROAH 172200Z 06006KT 9999 FEW010 BKN080 26/24 Q1011 RMK 1CU010 6AC080 A2986

RORA / Aguni

ROAH_APP

REMOTE

01/19 800x25

民間 civil

過去5時間に発表されたMETARがありません。

ROKJ / Kumejima

ROAH_APP

REMOTE

03/21 2000x45

民間 civil

過去5時間に発表されたMETARがありません。

RODN / Kadena
VMC

ROAH_APP

TOWER

05L/23R 3688x91
05R/23L 3688x61

自衛隊 military

9700

090@3KT

29.88

RODN 172216Z AUTO 09003KT 6SM -RA BR OVC050 25/24 A2988 RMK AO2 SLP124

ROTM / Futenma
VMC

ROAH_APP

TOWER

06/24 2740x45

自衛隊 military

8000

000@6KT

29.89

ROTM 172159Z VRB06KT 8000 -SHRA BR SCT015 SCT030 BKN100 25/25 A2989 RMK SLP107 STNPR29585 P0004 T02490249

RORS / Shimojishima
VMC

RORS_APP

TOWER

17/35 3000x60

民間 civil

9999

070@4KT

29.82

RORS 172200Z 07004KT 9999 FEW015 25/25 Q1010

ROMY / Miyako
VMC

RORS_APP

TOWER

04/22 2000x45

民間 civil

9999

000@0KT

29.82

ROMY 172200Z 00000KT 9999 FEW012 26/26 Q1010

ROIG / New Ishigaki
VMC

RORS_APP

TOWER

22/04 2000x45

民間 civil

9999

360@8KT

29.82

ROIG 172200Z 36008KT 9999 VCSH FEW015 BKN040 26/24 Q1010

RORT / Tarama

RORS_APP

REMOTE

36/18 1500x45

民間 civil

過去5時間に発表されたMETARがありません。

RJKA / Amami
VMC

NO RADAR

RADIO

03/21 2000x45

民間 civil

9999

130@6KT

29.85

RJKA 172200Z 13006KT 9999 FEW015 SCT020 28/25 Q1011

RJKI / Kikai

NO RADAR

REMOTE

07/25 1200x30

民間 civil

過去5時間に発表されたMETARがありません。

RJKN / Tokunoshima

NO RADAR

REMOTE

19/01 2000x45

民間 civil

過去5時間に発表されたMETARがありません。

RJKB / Okierabu

NO RADAR

REMOTE

04/22 1350x45

民間 civil

過去5時間に発表されたMETARがありません。

RORY / Yoron
VMC

NO RADAR

REMOTE

32/14 1320x30

民間 civil

9999

090@3KT

29.85

RORY 172200Z AUTO 09003KT 9999 NSC 26/24 Q1011

RORK / Kitadaito

NO RADAR

REMOTE

03/21 1500x45

民間 civil

過去5時間に発表されたMETARがありません。

ROMD / Minami-daito

NO RADAR

REMOTE

02/20 1500x45

民間 civil

過去5時間に発表されたMETARがありません。

ROYN / Yonaguni
VMC

NO RADAR

REMOTE

26/08 2000x45

民間 civil

9999

360@15KT

29.85

ROYN 172200Z AUTO 36015KT 9999 FEW015 BKN050 BKN060 27/24 Q1011

RORH / Hateruma

NO RADAR

REMOTE

02/20 800x25

民間 civil

過去5時間に発表されたMETARがありません。

ROKR / Kerama

NO RADAR

REMOTE

02/20 800x25

民間 civil

過去5時間に発表されたMETARがありません。